^^
Station Historical Data
Daily Summary for April 19, 2017 Units:  Metric    English   Both
« Previous Day
Next Day »
Daily Weekly Monthly Yearly Custom
  High: Low: Average:
Temperature: 30.9 °C 23.6 °C 27.6 °C
Dew Point: 0.5 °C -1.9 °C -0.9 °C
Humidity: 21% 13% 16%
Wind Speed: 24.1km/h 0km/h 8.9km/h
Wind Gust: 30.6km/h - -
Wind- - ESE
Pressure: 1012.8 hPa 1010.7 hPa -
Precipitation: 0 mm    
Historical Graphs
 
 
Tabular Data for April 19, 2017
Time Temperature Dew Point Pressure Wind Wind Speed Wind Gust Humidity Rainfall Rate (Hourly) solar Conditions
15:17 30.9 °C -0.7 °C 1011.1 hPa Calm   12.9 km/h 13% 0 mm 397.0 W/m2
15:32 30.9 °C 0.3 °C 1010.7 hPa Calm     14% 0 mm 346.0 W/m2
15:48 30.9 °C -0.7 °C 1011.1 hPa ESE 9.7 km/h 17.7 km/h 13% 0 mm 297.0 W/m2
15:58 30.8 °C -0.8 °C 1010.7 hPa ESE 6.4 km/h 16.1 km/h 13% 0 mm 262.0 W/m2
16:13 30.9 °C -0.7 °C 1010.7 hPa ESE 14.3 km/h 16.1 km/h 13% 0 mm 204.0 W/m2
16:27 30.6 °C -1 °C 1011.1 hPa ESE 13 km/h 17.7 km/h 13% 0 mm 162.0 W/m2
16:33 30.5 °C -1 °C 1010.7 hPa ESE 13 km/h 17.7 km/h 13% 0 mm 127.0 W/m2
16:48 30.3 °C -1.2 °C 1010.7 hPa ESE 20.9 km/h 24.1 km/h 13% 0 mm 70.0 W/m2
16:58 30 °C -1.4 °C 1010.7 hPa ESE 17.7 km/h 22.5 km/h 13% 0 mm 40.0 W/m2
17:18 29.7 °C -1.7 °C 1011.1 hPa ESE 9.7 km/h 14.5 km/h 13% 0 mm 11.0 W/m2
17:24 29.3 °C -1 °C 1011.1 hPa ESE 6.4 km/h 9.7 km/h 14% 0 mm 5.0 W/m2
17:34 28.8 °C -1.4 °C 1011.1 hPa Calm   9.7 km/h 14% 0 mm 0.0 W/m2
17:44 28.7 °C -1.4 °C 1011.4 hPa ESE 7.9 km/h 16.1 km/h 14% 0 mm 0.0 W/m2
17:58 28.5 °C -1.6 °C 1011.4 hPa ESE 7.9 km/h 9.7 km/h 14% 0 mm 0.0 W/m2
18:04 28.1 °C -1.9 °C 1011.4 hPa ESE 7.9 km/h 11.3 km/h 14% 0 mm 0.0 W/m2
18:19 27.5 °C -1.4 °C 1011.7 hPa ESE 7.9 km/h 9.7 km/h 15% 0 mm 0.0 W/m2
18:34 26.8 °C -1.1 °C 1011.7 hPa ESE 7.9 km/h 9.7 km/h 16% 0 mm 0.0 W/m2
18:44 26.7 °C -1.2 °C 1011.7 hPa ESE 4.7 km/h 9.7 km/h 16% 0 mm 0.0 W/m2
19:00 26.1 °C -1.7 °C 1011.7 hPa Calm     16% 0 mm 0.0 W/m2
19:10 25.7 °C -1.2 °C 1012.1 hPa Calm     17% 0 mm 0.0 W/m2
19:20 25.7 °C -1.2 °C 1012.1 hPa Calm     17% 0 mm 0.0 W/m2
19:36 25.4 °C -1.4 °C 1012.1 hPa Calm     17% 0 mm 0.0 W/m2
19:57 25.3 °C -0.7 °C 1012.4 hPa ESE 14.3 km/h 14.5 km/h 18% 0 mm 0.0 W/m2
20:06 25.1 °C -0.9 °C 1012.4 hPa ESE 9.7 km/h 12.9 km/h 18% 0 mm 0.0 W/m2
20:22 24.9 °C -0.3 °C 1012.4 hPa ESE 9.7 km/h 11.3 km/h 19% 0 mm 0.0 W/m2
20:32 24.8 °C -0.4 °C 1012.8 hPa ESE 11.1 km/h 19.3 km/h 19% 0 mm 0.0 W/m2
20:47 24.8 °C 0.3 °C 1012.8 hPa ESE 13 km/h 20.9 km/h 20% 0 mm 0.0 W/m2
21:07 25 °C 0.5 °C 1012.8 hPa ESE 24.1 km/h 30.6 km/h 20% 0 mm 0.0 W/m2
21:17 24.5 °C 0.1 °C 1012.8 hPa ESE 9.7 km/h 16.1 km/h 20% 0 mm 0.0 W/m2
21:27 23.8 °C 0.2 °C 1012.8 hPa ESE 14.3 km/h 16.1 km/h 21% 0 mm 0.0 W/m2
21:37 23.6 °C 0 °C 1012.8 hPa ESE 13 km/h 22.5 km/h 21% 0 mm 0.0 W/m2
Canyon Roadhouse, Fishriver Canyon, Namibia
Compliments of Weather Underground - 1.75 mb